createdAt,value
2019-02-19T00:04:22.713Z,77.50
2019-02-19T00:14:26.759Z,77.20
2019-02-19T00:24:31.380Z,77.10
2019-02-19T00:34:35.434Z,77.20
2019-02-19T00:44:39.757Z,77.40
2019-02-19T00:54:44.002Z,77.50
2019-02-19T01:04:48.284Z,77.40
2019-02-19T01:14:52.065Z,77.30
2019-02-19T01:24:56.342Z,77.50
2019-02-19T01:35:00.250Z,77.60
2019-02-19T01:45:04.507Z,77.70
2019-02-19T01:55:08.394Z,77.70
2019-02-19T02:05:12.469Z,78.10
2019-02-19T02:15:16.252Z,78.30
2019-02-19T02:25:21.210Z,78.70
2019-02-19T02:35:25.449Z,78.80
2019-02-19T02:45:29.254Z,78.70
2019-02-19T02:55:33.365Z,78.80
2019-02-19T03:05:39.714Z,78.30
2019-02-19T03:15:43.765Z,78.40
2019-02-19T03:25:48.037Z,78.50
2019-02-19T03:35:52.301Z,78.70
2019-02-19T03:45:57.084Z,78.90
2019-02-19T03:56:01.201Z,79.20
2019-02-19T04:06:05.747Z,79.80
2019-02-19T04:16:10.120Z,80.30
2019-02-19T04:26:14.122Z,80.10
2019-02-19T04:36:18.046Z,81.10
2019-02-19T04:46:31.277Z,81.60
2019-02-19T04:56:28.304Z,82.50
2019-02-19T05:06:32.329Z,84.00
2019-02-19T05:16:40.824Z,85.40
2019-02-19T05:26:42.367Z,86.60
2019-02-19T05:36:46.666Z,87.20
2019-02-19T05:46:51.002Z,88.40
2019-02-19T05:56:55.302Z,89.10
2019-02-19T06:06:59.310Z,90.00
2019-02-19T06:17:03.629Z,90.20
2019-02-19T06:27:07.707Z,90.40
2019-02-19T06:37:11.833Z,90.80
2019-02-19T06:47:16.422Z,90.80
2019-02-19T06:57:20.199Z,90.90
2019-02-19T07:07:23.994Z,91.10
2019-02-19T07:17:27.774Z,91.20
2019-02-19T07:27:31.887Z,91.10
2019-02-19T07:37:55.129Z,91.10
2019-02-19T07:47:59.548Z,91.20
2019-02-19T07:58:03.310Z,91.20
2019-02-19T08:08:07.078Z,91.20
2019-02-19T08:18:11.147Z,91.20
2019-02-19T08:28:15.578Z,91.10
2019-02-19T08:38:19.914Z,90.90
2019-02-19T08:48:24.554Z,90.80
2019-02-19T08:58:29.498Z,90.60
2019-02-19T09:08:34.403Z,90.50
2019-02-19T09:18:39.035Z,90.50
2019-02-19T09:28:43.765Z,90.20
2019-02-19T09:38:48.522Z,89.80
2019-02-19T09:48:52.301Z,88.90
2019-02-19T09:58:56.691Z,87.80
2019-02-19T10:09:00.758Z,86.90
2019-02-19T10:19:05.470Z,86.70
2019-02-19T10:29:09.278Z,86.00
2019-02-19T10:39:13.318Z,85.60
2019-02-19T10:49:17.363Z,84.40
2019-02-19T10:59:21.742Z,83.70
2019-02-19T11:09:26.529Z,85.10
2019-02-19T11:19:30.914Z,84.20
2019-02-19T11:29:35.038Z,82.10
2019-02-19T11:39:39.370Z,82.20
2019-02-19T11:49:43.269Z,81.60
2019-02-19T11:59:47.860Z,81.80
2019-02-19T12:09:52.006Z,82.60
2019-02-19T12:19:55.766Z,83.00
2019-02-19T12:30:00.277Z,83.00
2019-02-19T12:40:04.711Z,83.90
2019-02-19T12:50:10.508Z,84.00
2019-02-19T13:00:15.934Z,83.80
2019-02-19T13:10:20.008Z,84.00
2019-02-19T13:20:24.038Z,85.60
2019-02-19T13:30:28.158Z,87.50
2019-02-19T13:40:32.225Z,87.50
2019-02-19T13:50:36.321Z,88.90
2019-02-19T14:00:41.934Z,90.00
2019-02-19T14:10:46.066Z,90.10
2019-02-19T14:21:07.614Z,90.30
2019-02-19T14:31:29.826Z,90.80
2019-02-19T14:42:06.120Z,91.10
2019-02-19T14:52:17.005Z,91.30
2019-02-19T15:02:40.286Z,91.50
2019-02-19T15:13:06.863Z,91.40
2019-02-19T15:23:29.094Z,91.60
2019-02-19T15:33:41.514Z,91.60
2019-02-19T15:44:04.111Z,92.00
2019-02-19T15:54:29.446Z,92.50
2019-02-19T16:05:04.104Z,92.50
2019-02-19T16:15:26.321Z,92.80
2019-02-19T16:25:48.347Z,93.00
2019-02-19T16:36:04.302Z,93.10
2019-02-19T16:46:26.447Z,93.10
2019-02-19T16:56:40.006Z,93.30
2019-02-19T17:06:54.406Z,93.30
2019-02-19T17:17:16.714Z,93.10
2019-02-19T17:27:39.026Z,93.30
2019-02-19T17:38:14.399Z,93.30
2019-02-19T17:48:21.732Z,93.30
2019-02-19T17:58:32.956Z,93.40
2019-02-19T18:08:59.389Z,93.40
2019-02-19T18:19:03.277Z,92.70
2019-02-19T18:29:07.083Z,93.10
2019-02-19T18:39:11.237Z,93.40
2019-02-19T18:49:15.007Z,93.30
2019-02-19T18:59:19.853Z,93.40
2019-02-19T19:09:24.940Z,93.30
2019-02-19T19:19:29.303Z,93.20
2019-02-19T19:29:33.831Z,93.10
2019-02-19T19:39:38.424Z,93.10
2019-02-19T19:49:42.590Z,93.30
2019-02-19T19:59:46.834Z,93.20
2019-02-19T20:09:50.603Z,93.20
2019-02-19T20:19:54.735Z,93.10
2019-02-19T20:29:59.027Z,93.10
2019-02-19T20:40:03.067Z,93.20
2019-02-19T20:50:07.697Z,93.00
2019-02-19T21:00:15.452Z,93.00
2019-02-19T21:10:20.139Z,92.90
2019-02-19T21:20:24.981Z,92.90
2019-02-19T21:30:43.066Z,91.80
2019-02-19T21:40:46.909Z,92.60
2019-02-19T21:50:50.670Z,92.80
2019-02-19T22:00:55.080Z,92.80
2019-02-19T22:10:59.814Z,92.80
2019-02-19T22:21:20.951Z,92.60
2019-02-19T22:31:25.473Z,92.60
2019-02-19T22:41:29.866Z,92.70
2019-02-19T22:51:34.327Z,92.70
2019-02-19T23:02:05.018Z,92.60
2019-02-19T23:12:09.070Z,92.50
2019-02-19T23:22:21.386Z,92.40
2019-02-19T23:32:20.009Z,92.40
2019-02-19T23:42:24.085Z,92.30
2019-02-19T23:52:30.513Z,92.40
